Frederikssund, Denmark
Current Conditions -  °F | °C
As of 2:20 PM on Saturday 22 Nov 2014 (Local Time) from EKRK Reporting Station
Broken Clouds Broken Clouds  
Wind Chill: 37°   Ceiling: 13000
Heat Index: 43°   Visibility: 6mi
Dew Point: 37°   Wind: 9mph
Humidity: 81%   Direction: 150°SSE
Pressure: 30.24"   Gusts: NA
Location:  55.84°N, 12.07°E
Report Text: EKRK 221320Z AUTO 15008KT 9999NDV FEW019/// BKN130///06/03 Q1024
Loading
Personal Weather Stations






























Interactive Weather Map New forecast layout! Learn more

10-Day Weather Forecast

Advertisements
Track Severe Weather on mobile